Time;durP1;ratioP1;P1;durP2;ratioP2;P2;SDS_P1;SDS_P2;PMS_P1;PMS_P2;Temp;Humidity;BMP_temperature;BMP_pressure;BME280_temperature;BME280_humidity;BME280_pressure;Samples;Min_cycle;Max_cycle;Signal;HPM_P1;HPM_P2
2023/10/04 00:00:23;;;;;;;11.88;2.28;;;;;;;;;;5017622;28;20014;-62
2023/10/04 00:02:50;;;;;;;10.88;2.75;;;;;;;;;;5019184;28;20044;-62
2023/10/04 00:05:17;;;;;;;11.02;2.05;;;;;;;;;;5017750;28;20030;-62
2023/10/04 00:07:43;;;;;;;12.45;2.45;;;;;;;;;;5017489;28;20033;-62
2023/10/04 00:10:09;;;;;;;11.07;1.90;;;;;;;;;;5023459;28;20032;-63
2023/10/04 00:12:35;;;;;;;16.00;2.00;;;;;;;;;;5023776;28;20113;-62
2023/10/04 00:15:04;;;;;;;9.98;1.95;;;;;;;;;;5023615;28;20563;-64
2023/10/04 00:17:30;;;;;;;9.10;2.28;;;;;;;;;;5018771;28;20052;-62
2023/10/04 00:19:56;;;;;;;13.07;2.50;;;;;;;;;;5024302;28;20030;-64
2023/10/04 00:22:23;;;;;;;18.15;2.22;;;;;;;;;;5017377;28;20038;-63
2023/10/04 00:24:51;;;;;;;11.68;2.15;;;;;;;;;;5017283;28;20037;-64
2023/10/04 00:27:18;;;;;;;12.75;2.08;;;;;;;;;;5018452;28;20026;-63
2023/10/04 00:29:44;;;;;;;9.35;1.83;;;;;;;;;;5018209;28;20431;-62
2023/10/04 00:32:11;;;;;;;7.65;2.42;;;;;;;;;;5018470;28;20024;-63
2023/10/04 00:34:40;;;;;;;9.27;2.25;;;;;;;;;;5022623;28;20431;-63
2023/10/04 00:37:07;;;;;;;14.30;2.53;;;13.40;99.90;;;;;;5020684;28;20028;-62
2023/10/04 00:39:34;;;;;;;10.13;2.10;;;12.90;99.90;;;;;;5021382;28;20014;-62
2023/10/04 00:42:00;;;;;;;11.15;2.40;;;12.90;99.90;;;;;;5017332;28;20014;-61
2023/10/04 00:44:26;;;;;;;9.73;2.05;;;12.90;99.90;;;;;;5020000;28;20053;-64
2023/10/04 00:46:52;;;;;;;16.02;2.42;;;12.90;99.90;;;;;;5018874;28;20041;-63
2023/10/04 00:49:18;;;;;;;13.07;1.98;;;12.90;99.90;;;;;;5020110;28;20037;-62
2023/10/04 00:51:44;;;;;;;11.70;2.17;;;12.80;99.90;;;;;;5020142;28;20033;-62
2023/10/04 00:54:10;;;;;;;7.32;2.25;;;12.70;99.90;;;;;;5029436;28;20109;-63
2023/10/04 00:56:36;;;;;;;11.73;2.33;;;12.70;99.90;;;;;;5018168;28;20503;-64
2023/10/04 00:59:05;;;;;;;11.77;2.13;;;12.80;99.90;;;;;;5026122;28;20022;-63
2023/10/04 01:01:31;;;;;;;8.18;1.90;;;12.70;99.90;;;;;;5013589;28;20069;-63
2023/10/04 01:04:00;;;;;;;15.68;2.70;;;12.70;99.90;;;;;;5020720;28;20026;-63
2023/10/04 01:06:26;;;;;;;15.05;2.97;;;12.60;99.90;;;;;;5011022;28;20491;-63
2023/10/04 01:08:52;;;;;;;13.15;2.33;;;12.60;99.90;;;;;;5016726;28;20029;-63
2023/10/04 01:11:19;;;;;;;7.30;1.85;;;12.60;99.90;;;;;;5014396;28;20118;-63
2023/10/04 01:13:45;;;;;;;11.82;1.83;;;12.60;99.90;;;;;;5020955;28;20026;-63
2023/10/04 01:16:11;;;;;;;7.80;2.08;;;12.60;99.90;;;;;;5018529;28;20022;-64
2023/10/04 01:18:38;;;;;;;7.15;1.88;;;12.40;99.90;;;;;;5024138;28;20116;-63
2023/10/04 01:21:05;;;;;;;8.27;2.08;;;12.50;99.90;;;;;;5022594;28;20048;-64
2023/10/04 01:23:31;;;;;;;12.30;2.38;;;12.40;99.90;;;;;;5025570;28;20018;-63
2023/10/04 01:25:56;;;;;;;18.77;3.30;;;12.40;99.90;;;;;;5022367;28;20494;-64
2023/10/04 01:28:28;;;;;;;8.40;2.03;;;12.40;99.90;;;;;;5022004;28;20029;-63
2023/10/04 01:30:55;;;;;;;9.30;2.47;;;12.50;99.90;;;;;;5017616;28;20029;-63
2023/10/04 01:33:21;;;;;;;14.43;2.60;;;12.50;99.90;;;;;;5019063;28;20017;-63
2023/10/04 01:35:53;;;;;;;9.60;2.58;;;12.50;99.90;;;;;;5024310;28;20724;-64
2023/10/04 01:38:31;;;;;;;17.77;2.20;;;12.60;99.90;;;;;;5019441;28;20078;-61
2023/10/04 01:40:58;;;;;;;9.57;2.17;;;12.50;99.90;;;;;;5035929;28;20053;-64
2023/10/04 01:43:25;;;;;;;8.20;2.83;;;12.50;99.90;;;;;;5019840;28;20017;-63
2023/10/04 01:45:52;;;;;;;12.70;2.22;;;12.60;99.90;;;;;;5023527;28;20027;-62
2023/10/04 01:48:19;;;;;;;11.45;1.90;;;12.60;99.90;;;;;;5022891;28;20033;-64
2023/10/04 01:50:48;;;;;;;9.93;2.45;;;12.70;99.90;;;;;;5024471;28;20021;-64
2023/10/04 01:53:13;;;;;;;8.63;1.83;;;12.70;99.90;;;;;;5025534;28;20020;-62
2023/10/04 01:55:40;;;;;;;12.75;2.47;;;12.70;99.90;;;;;;5028650;28;20033;-62
2023/10/04 01:58:06;;;;;;;15.35;2.20;;;12.70;99.90;;;;;;5016589;28;20064;-63
2023/10/04 02:00:33;;;;;;;15.77;2.42;;;12.70;99.90;;;;;;5024115;28;20014;-63
2023/10/04 02:03:01;;;;;;;17.48;2.20;;;12.80;99.90;;;;;;5022957;28;20022;-63
2023/10/04 02:05:28;;;;;;;15.35;2.33;;;12.80;99.90;;;;;;5032660;28;20384;-62
2023/10/04 02:07:56;;;;;;;15.52;2.25;;;12.80;99.90;;;;;;5021530;28;20026;-63
2023/10/04 02:10:22;;;;;;;7.40;2.45;;;12.80;99.90;;;;;;5024965;28;20041;-62
2023/10/04 02:12:50;;;;;;;6.43;1.92;;;12.70;99.90;;;;;;5022786;28;20496;-63
2023/10/04 02:15:17;;;;;;;20.67;2.38;;;12.80;99.90;;;;;;5023910;28;20099;-60
2023/10/04 02:17:46;;;;;;;8.75;2.50;;;12.80;99.90;;;;;;5020290;28;20034;-64
2023/10/04 02:20:18;;;;;;;13.40;2.05;;;12.80;99.90;;;;;;5030776;28;20057;-63
2023/10/04 02:22:43;;;;;;;11.57;1.60;;;12.70;99.90;;;;;;5025719;28;20025;-64
2023/10/04 02:25:13;;;;;;;10.95;2.30;;;12.80;99.90;;;;;;5026324;28;20483;-63
2023/10/04 02:27:44;;;;;;;10.05;1.88;;;12.80;99.90;;;;;;5022744;28;20033;-63
2023/10/04 02:30:13;;;;;;;10.85;1.92;;;12.80;99.90;;;;;;5024274;28;20030;-64
2023/10/04 02:32:43;;;;;;;9.05;2.58;;;12.80;99.90;;;;;;5036723;28;20021;-63
2023/10/04 02:35:11;;;;;;;11.07;2.08;;;12.80;99.90;;;;;;5023580;28;20052;-62
2023/10/04 02:37:38;;;;;;;6.32;1.85;;;12.80;99.90;;;;;;5027202;28;20068;-63
2023/10/04 02:40:14;;;;;;;4.57;1.80;;;12.80;99.90;;;;;;5026687;28;20057;-63
2023/10/04 02:42:41;;;;;;;11.88;2.78;;;12.80;99.90;;;;;;5026502;28;20044;-63
2023/10/04 02:45:12;;;;;;;6.57;1.73;;;12.80;99.90;;;;;;5017727;28;20080;-63
2023/10/04 02:47:38;;;;;;;8.20;1.88;;;12.80;99.90;;;;;;5030791;28;20025;-62
2023/10/04 02:50:07;;;;;;;12.52;2.22;;;12.80;99.90;;;;;;5030339;28;20025;-64
2023/10/04 02:52:33;;;;;;;11.82;1.92;;;12.80;99.90;;;;;;5026717;28;20022;-62
2023/10/04 02:54:58;;;;;;;14.82;2.53;;;12.80;99.90;;;;;;5022454;28;20039;-62
2023/10/04 02:57:24;;;;;;;14.88;2.33;;;12.80;99.90;;;;;;5019305;28;20096;-63
2023/10/04 02:59:49;;;;;;;9.60;1.92;;;12.80;99.90;;;;;;5018966;28;20036;-64
2023/10/04 03:02:17;;;;;;;12.30;1.98;;;12.80;99.90;;;;;;5025446;28;20030;-63
2023/10/04 03:04:43;;;;;;;13.35;2.08;;;12.90;99.90;;;;;;5022593;28;20095;-62
2023/10/04 03:07:09;;;;;;;15.25;2.40;;;12.90;99.90;;;;;;5024640;28;20026;-63
2023/10/04 03:09:37;;;;;;;16.50;1.85;;;12.90;99.90;;;;;;5023362;28;20022;-63
2023/10/04 03:12:03;;;;;;;25.48;2.30;;;12.90;99.90;;;;;;5019752;28;20029;-63
2023/10/04 03:14:30;;;;;;;13.40;2.58;;;12.90;99.90;;;;;;5015651;28;20046;-63
2023/10/04 03:17:08;;;;;;;10.77;2.13;;;13.00;99.90;;;;;;5031530;28;20029;-62
2023/10/04 03:19:36;;;;;;;9.05;1.75;;;13.00;99.90;;;;;;5020509;28;20026;-64
2023/10/04 03:22:01;;;;;;;11.55;1.85;;;13.00;99.90;;;;;;5022885;28;20020;-63
2023/10/04 03:24:27;;;;;;;16.33;2.47;;;13.00;99.90;;;;;;5027046;28;20493;-63
2023/10/04 03:26:52;;;;;;;13.40;1.88;;;13.00;99.90;;;;;;5024494;28;20037;-64
2023/10/04 03:29:18;;;;;;;17.85;1.95;;;12.90;99.90;;;;;;5017099;28;20357;-64
2023/10/04 03:31:48;;;;;;;13.43;3.33;;;12.90;99.90;;;;;;5021453;28;20033;-64
2023/10/04 03:34:13;;;;;;;10.70;1.77;;;12.90;99.90;;;;;;5025326;28;20495;-63
2023/10/04 03:36:39;;;;;;;8.38;1.35;;;12.90;99.90;;;;;;5022120;28;20030;-64
2023/10/04 03:39:09;;;;;;;12.55;2.20;;;12.90;99.90;;;;;;5016750;28;20017;-64
2023/10/04 03:41:36;;;;;;;8.35;1.77;;;12.90;99.90;;;;;;5017256;28;20172;-63
2023/10/04 03:44:05;;;;;;;7.57;1.77;;;12.90;99.90;;;;;;5016927;28;20100;-64
2023/10/04 03:46:31;;;;;;;9.68;2.10;;;12.90;99.90;;;;;;5029747;28;20106;-63
2023/10/04 03:48:58;;;;;;;7.28;2.15;;;12.90;99.90;;;;;;5030566;28;20083;-64
2023/10/04 03:51:24;;;;;;;11.27;2.08;;;13.00;99.90;;;;;;5019743;28;20105;-62
2023/10/04 03:53:51;;;;;;;14.25;2.13;;;12.90;99.90;;;;;;5016309;28;20029;-62
2023/10/04 03:56:17;;;;;;;14.23;2.40;;;13.00;99.90;;;;;;5024580;28;20072;-64
2023/10/04 03:58:43;;;;;;;9.00;2.20;;;13.00;99.90;;;;;;5021129;28;20033;-62
2023/10/04 04:01:10;;;;;;;13.63;2.42;;;13.00;99.90;;;;;;5022604;28;20029;-62
2023/10/04 04:03:36;;;;;;;7.75;2.00;;;13.00;99.90;;;;;;5017427;28;20022;-62
2023/10/04 04:06:02;;;;;;;13.73;1.85;;;12.90;99.90;;;;;;5017325;28;20092;-62
2023/10/04 04:08:27;;;;;;;13.75;2.35;;;12.90;99.90;;;;;;5020378;28;20029;-64
2023/10/04 04:10:53;;;;;;;12.38;2.20;;;12.90;99.90;;;;;;5023693;28;20403;-63
2023/10/04 04:13:19;;;;;;;10.05;2.55;;;12.90;99.90;;;;;;5027703;28;20034;-62
2023/10/04 04:15:45;;;;;;;11.60;1.83;;;12.90;99.90;;;;;;5024139;28;20030;-64
2023/10/04 04:18:19;;;;;;;13.13;2.58;;;12.90;99.90;;;;;;5023297;28;20034;-64
2023/10/04 04:20:49;;;;;;;15.43;2.53;;;12.90;99.90;;;;;;5021257;28;20017;-63
2023/10/04 04:23:18;;;;;;;13.98;1.92;;;12.80;99.90;;;;;;5033289;28;20041;-63
2023/10/04 04:25:45;;;;;;;15.10;2.72;;;12.80;99.90;;;;;;5018735;28;20148;-63
2023/10/04 04:28:15;;;;;;;7.50;1.98;;;12.80;99.90;;;;;;5024374;28;20016;-64
2023/10/04 04:30:40;;;;;;;10.57;2.13;;;12.80;99.90;;;;;;5019660;28;20099;-64
2023/10/04 04:33:17;;;;;;;11.00;2.70;;;12.80;99.90;;;;;;5027213;28;20025;-63
2023/10/04 04:38:25;;;;;;;16.90;2.85;;;12.70;99.90;;;;;;5024564;28;20395;-62
2023/10/04 04:40:54;;;;;;;19.80;2.50;;;12.70;99.90;;;;;;5019716;28;20038;-62
2023/10/04 04:45:50;;;;;;;21.88;2.40;;;12.70;99.90;;;;;;5019098;28;20034;-64
2023/10/04 04:48:25;;;;;;;11.48;2.55;;;12.70;99.90;;;;;;5020757;28;20036;-63
2023/10/04 04:50:54;;;;;;;;;;;12.70;99.90;;;;;;5027971;28;20033;-64
2023/10/04 04:53:22;;;;;;;16.55;3.03;;;12.70;99.90;;;;;;5028645;28;20310;-63
2023/10/04 04:55:49;;;;;;;17.20;2.60;;;12.60;99.90;;;;;;5025801;28;20036;-64
2023/10/04 04:58:15;;;;;;;10.63;2.53;;;12.60;99.90;;;;;;5024941;28;20018;-64
2023/10/04 05:00:44;;;;;;;16.38;2.60;;;12.60;99.90;;;;;;5030293;28;20427;-63
2023/10/04 05:03:11;;;;;;;17.20;2.80;;;12.50;99.90;;;;;;5020401;28;20032;-64
2023/10/04 05:05:37;;;;;;;8.55;2.13;;;12.50;99.90;;;;;;5029298;28;20699;-62
2023/10/04 05:08:04;;;;;;;6.70;2.22;;;12.50;99.90;;;;;;5021721;28;20476;-62
2023/10/04 05:10:36;;;;;;;11.15;2.38;;;12.50;99.90;;;;;;5026630;28;20022;-62
2023/10/04 05:13:03;;;;;;;13.13;2.53;;;12.50;99.90;;;;;;5027309;28;20029;-63
2023/10/04 05:15:32;;;;;;;13.52;2.70;;;12.40;99.90;;;;;;5022652;28;20037;-64
2023/10/04 05:18:04;;;;;;;18.05;2.40;;;12.40;99.90;;;;;;5025786;28;20059;-63
2023/10/04 05:20:31;;;;;;;20.10;2.80;;;12.40;99.90;;;;;;5022593;28;20022;-63
2023/10/04 05:22:58;;;;;;;9.68;2.78;;;12.30;99.90;;;;;;5017014;28;20108;-63
2023/10/04 05:25:25;;;;;;;14.73;2.10;;;12.40;99.90;;;;;;5028819;28;20126;-63
2023/10/04 05:27:50;;;;;;;16.30;2.83;;;12.30;99.90;;;;;;5028434;28;20112;-63
2023/10/04 05:30:18;;;;;;;25.38;3.20;;;12.30;99.90;;;;;;5028110;28;20025;-60
2023/10/04 05:32:46;;;;;;;16.33;2.63;;;12.30;99.90;;;;;;5028003;28;20029;-63
2023/10/04 05:35:14;;;;;;;10.57;2.33;;;12.30;99.90;;;;;;5026599;28;20033;-64
2023/10/04 05:37:44;;;;;;;15.60;2.75;;;12.20;99.90;;;;;;5027400;28;20444;-62
2023/10/04 05:40:23;;;;;;;15.15;2.88;;;12.10;99.90;;;;;;5026586;28;20014;-63
2023/10/04 05:42:49;;;;;;;11.93;2.67;;;12.10;99.90;;;;;;5019506;28;20454;-63
2023/10/04 05:45:16;;;;;;;13.48;3.28;;;12.00;99.90;;;;;;5028666;28;20029;-61
2023/10/04 05:47:41;;;;;;;14.75;2.35;;;11.90;99.90;;;;;;5026313;28;20468;-62
2023/10/04 05:50:13;;;;;;;9.23;1.95;;;11.90;99.90;;;;;;5024040;28;20057;-62
2023/10/04 05:52:42;;;;;;;9.10;2.75;;;11.80;99.90;;;;;;5025865;28;20080;-63
2023/10/04 05:55:08;;;;;;;14.48;2.40;;;11.80;99.90;;;;;;5020364;28;20044;-61
2023/10/04 05:57:35;;;;;;;12.45;2.33;;;11.70;99.90;;;;;;5027273;28;20018;-62
2023/10/04 06:00:21;;;;;;;10.98;3.15;;;11.70;99.90;;;;;;5026999;28;20076;-60
2023/10/04 06:02:48;;;;;;;7.63;2.03;;;11.70;99.90;;;;;;5029210;28;20033;-62
2023/10/04 06:05:14;;;;;;;13.52;3.15;;;11.70;99.90;;;;;;5028154;28;20036;-62
2023/10/04 06:07:40;;;;;;;9.90;2.42;;;11.70;99.90;;;;;;5023763;28;20037;-62
2023/10/04 06:10:06;;;;;;;13.45;2.88;;;11.70;99.90;;;;;;5021629;28;20022;-62
2023/10/04 06:12:31;;;;;;;14.13;2.90;;;11.80;99.90;;;;;;5026679;28;20033;-63
2023/10/04 06:14:57;;;;;;;13.70;2.78;;;11.80;99.90;;;;;;5022990;28;20080;-62
2023/10/04 06:17:23;;;;;;;23.10;3.45;;;11.80;99.90;;;;;;5028197;28;20111;-62
2023/10/04 06:19:49;;;;;;;15.05;2.95;;;11.90;99.90;;;;;;5022407;28;20044;-63
2023/10/04 06:22:14;;;;;;;18.10;3.33;;;;;;;;;;5026253;28;20029;-62
2023/10/04 06:24:40;;;;;;;30.83;2.90;;;12.10;99.90;;;;;;5020096;28;20038;-62
2023/10/04 06:27:05;;;;;;;9.93;2.53;;;12.20;99.90;;;;;;5020299;28;20034;-62
2023/10/04 06:29:31;;;;;;;31.42;3.55;;;12.20;99.90;;;;;;5025340;28;20037;-62
2023/10/04 06:31:56;;;;;;;14.90;2.90;;;12.20;99.90;;;;;;5020093;28;20037;-62
2023/10/04 06:34:22;;;;;;;17.30;3.38;;;;;;;;;;5019795;28;20052;-62
2023/10/04 06:36:49;;;;;;;17.65;3.10;;;;;;;;;;5022799;28;20267;-63
2023/10/04 06:39:14;;;;;;;22.23;3.60;;;12.30;99.90;;;;;;5024682;28;20624;-63
2023/10/04 06:41:40;;;;;;;20.73;3.40;;;12.40;99.90;;;;;;5017452;28;20048;-60
2023/10/04 06:44:08;;;;;;;15.63;2.60;;;12.50;99.90;;;;;;5026787;28;20022;-62
2023/10/04 06:46:35;;;;;;;16.20;2.67;;;12.50;99.90;;;;;;5025305;28;20021;-63
2023/10/04 06:49:00;;;;;;;19.40;2.50;;;12.60;99.90;;;;;;5028624;28;20108;-63
2023/10/04 06:51:26;;;;;;;10.90;2.28;;;12.60;99.90;;;;;;5023893;28;20108;-63
2023/10/04 06:53:51;;;;;;;10.95;2.58;;;12.70;99.90;;;;;;5020025;28;20060;-61
2023/10/04 06:56:17;;;;;;;19.73;3.60;;;12.80;99.90;;;;;;5022603;28;20032;-63
2023/10/04 06:58:42;;;;;;;19.17;3.28;;;12.90;99.90;;;;;;5028737;28;20029;-63
2023/10/04 07:01:08;;;;;;;22.10;3.00;;;12.90;99.90;;;;;;5024190;28;20033;-63
2023/10/04 07:03:33;;;;;;;19.00;2.70;;;13.00;99.90;;;;;;5022127;28;20018;-63
2023/10/04 07:06:00;;;;;;;17.70;2.78;;;13.00;99.90;;;;;;5019914;28;20021;-63
2023/10/04 07:08:32;;;;;;;12.32;2.42;;;13.00;99.90;;;;;;5023356;28;20034;-62
2023/10/04 07:11:00;;;;;;;13.52;2.40;;;13.10;99.90;;;;;;5017295;28;20098;-62
2023/10/04 07:13:26;;;;;;;16.05;3.38;;;13.10;99.90;;;;;;5024548;28;20053;-63
2023/10/04 07:15:52;;;;;;;17.48;3.10;;;13.10;99.90;;;;;;5023453;28;20036;-63
2023/10/04 07:18:17;;;;;;;13.73;2.78;;;13.20;99.90;;;;;;5020016;28;20111;-63
2023/10/04 07:20:43;;;;;;;11.88;3.20;;;13.30;99.90;;;;;;5022442;28;20021;-63
2023/10/04 07:23:10;;;;;;;15.40;3.30;;;13.30;99.90;;;;;;5018719;28;20026;-63
2023/10/04 07:25:37;;;;;;;15.68;3.17;;;13.30;99.90;;;;;;5025407;28;20029;-60
2023/10/04 07:28:05;;;;;;;15.25;2.85;;;13.40;99.90;;;;;;5020321;28;20523;-62
2023/10/04 07:30:31;;;;;;;16.55;2.58;;;13.40;99.90;;;;;;5021944;28;20022;-62
2023/10/04 07:33:00;;;;;;;16.55;3.55;;;13.40;99.90;;;;;;5020212;28;20022;-61
2023/10/04 07:35:27;;;;;;;13.13;2.97;;;13.50;99.90;;;;;;5019727;28;20484;-61
2023/10/04 07:37:57;;;;;;;21.73;4.00;;;13.50;99.90;;;;;;5020869;28;20055;-63
2023/10/04 07:40:24;;;;;;;16.40;3.13;;;13.50;99.90;;;;;;5013628;28;20030;-60
2023/10/04 07:42:53;;;;;;;14.63;2.78;;;13.60;99.90;;;;;;5011132;28;20486;-62
2023/10/04 07:45:19;;;;;;;12.95;3.00;;;13.60;99.90;;;;;;5020602;28;20025;-62
2023/10/04 07:47:45;;;;;;;15.48;3.13;;;13.70;99.90;;;;;;5020061;28;20033;-64
2023/10/04 07:50:14;;;;;;;10.70;3.28;;;13.80;99.90;;;;;;5018012;28;20022;-62
2023/10/04 07:52:42;;;;;;;14.32;2.75;;;13.80;99.90;;;;;;5024773;28;20439;-63
2023/10/04 07:55:18;;;;;;;22.05;2.95;;;13.90;99.90;;;;;;5016850;28;20184;-63
2023/10/04 07:57:48;;;;;;;13.52;2.88;;;13.90;99.90;;;;;;5022608;28;20034;-62
2023/10/04 08:00:15;;;;;;;13.98;2.88;;;13.90;99.90;;;;;;5022930;28;20500;-62
2023/10/04 08:02:51;;;;;;;18.77;3.47;;;14.00;99.90;;;;;;5021223;28;20095;-62
2023/10/04 08:05:19;;;;;;;12.50;2.90;;;14.00;99.90;;;;;;5019615;28;20507;-62
2023/10/04 08:07:52;;;;;;;14.13;2.95;;;14.10;99.90;;;;;;5022871;28;20036;-63
2023/10/04 08:10:23;;;;;;;30.27;3.75;;;14.10;99.90;;;;;;5016766;28;20395;-62
2023/10/04 08:12:51;;;;;;;62.85;6.78;;;14.20;99.90;;;;;;5022368;28;20138;-63
2023/10/04 08:15:19;;;;;;;14.93;2.75;;;14.30;99.90;;;;;;5017980;28;20038;-62
2023/10/04 08:17:48;;;;;;;24.17;2.72;;;14.30;99.90;;;;;;5021522;28;20030;-62
2023/10/04 08:20:14;;;;;;;17.95;3.58;;;14.30;99.90;;;;;;5021607;28;20024;-62
2023/10/04 08:22:41;;;;;;;15.73;2.83;;;14.40;99.90;;;;;;5023544;28;20107;-61
2023/10/04 08:25:13;;;;;;;14.73;3.47;;;14.40;99.90;;;;;;5020217;28;20041;-62
2023/10/04 08:27:39;;;;;;;15.40;3.42;;;14.40;99.90;;;;;;5016924;28;20034;-60
2023/10/04 08:30:12;;;;;;;13.00;2.85;;;14.50;99.90;;;;;;5018843;28;20021;-62
2023/10/04 08:32:40;;;;;;;14.70;2.88;;;14.50;99.90;;;;;;5021565;28;20040;-63
2023/10/04 08:35:06;;;;;;;11.25;2.65;;;14.60;99.90;;;;;;5023791;28;20099;-62
2023/10/04 08:37:31;;;;;;;17.88;3.00;;;14.60;99.90;;;;;;5024305;28;20037;-62
2023/10/04 08:39:57;;;;;;;12.15;3.22;;;14.70;99.90;;;;;;5024660;28;20017;-61
2023/10/04 08:42:24;;;;;;;16.38;3.10;;;14.80;99.90;;;;;;5017296;28;20435;-62
2023/10/04 08:44:50;;;;;;;17.75;2.65;;;14.80;99.90;;;;;;5017562;28;20026;-63
2023/10/04 08:47:16;;;;;;;19.83;3.53;;;15.00;99.90;;;;;;5018174;28;20084;-62
2023/10/04 08:49:54;;;;;;;15.93;3.20;;;15.10;99.90;;;;;;5023073;28;20091;-63
2023/10/04 08:52:27;;;;;;;20.13;3.45;;;15.10;99.90;;;;;;5025708;28;20484;-62
2023/10/04 08:55:05;;;;;;;11.75;3.13;;;15.10;99.90;;;;;;5018198;28;20040;-62
2023/10/04 08:57:35;;;;;;;13.68;2.67;;;15.30;99.90;;;;;;5016892;28;20092;-60
2023/10/04 09:00:02;;;;;;;13.77;3.30;;;15.40;99.90;;;;;;5022123;28;20499;-61
2023/10/04 09:02:31;;;;;;;11.82;2.78;;;15.40;99.90;;;;;;5022228;28;20013;-63
2023/10/04 09:04:58;;;;;;;15.35;3.15;;;;;;;;;;5018476;28;20462;-62
2023/10/04 09:07:24;;;;;;;15.27;3.17;;;;;;;;;;5020495;28;20049;-62
2023/10/04 09:09:51;;;;;;;18.25;2.80;;;;;;;;;;5023648;28;20078;-63
2023/10/04 09:12:17;;;;;;;16.08;3.08;;;;;;;;;;5018786;28;20080;-64
2023/10/04 09:14:43;;;;;;;17.02;3.15;;;;;;;;;;5021502;28;20030;-62
2023/10/04 09:17:14;;;;;;;14.55;2.55;;;;;;;;;;5017163;28;20021;-61
2023/10/04 09:19:41;;;;;;;19.83;3.33;;;;;;;;;;5023009;28;20025;-63
2023/10/04 09:22:09;;;;;;;14.48;2.70;;;;;;;;;;5013313;28;20030;-62
2023/10/04 09:24:54;;;;;;;20.27;4.03;;;;;;;;;;5013408;28;20079;-62
2023/10/04 09:27:21;;;;;;;12.25;3.03;;;;;;;;;;5019930;28;20041;-63
2023/10/04 09:29:48;;;;;;;17.02;3.45;;;;;;;;;;5021190;28;20022;-63
2023/10/04 09:32:14;;;;;;;59.60;5.35;;;;;;;;;;5027520;28;20025;-63
2023/10/04 09:34:40;;;;;;;20.55;3.80;;;;;;;;;;5018306;28;20033;-63
2023/10/04 09:37:32;;;;;;;15.43;3.47;;;;;;;;;;5031735;28;20076;-63
2023/10/04 09:40:12;;;;;;;18.23;4.00;;;;;;;;;;5020502;28;20057;-63
2023/10/04 09:43:04;;;;;;;16.63;3.30;;;;;;;;;;5031176;28;20017;-63
2023/10/04 09:45:31;;;;;;;18.15;2.80;;;;;;;;;;5027634;28;20104;-62
2023/10/04 09:48:03;;;;;;;15.20;3.13;;;;;;;;;;5021319;28;20037;-63
2023/10/04 09:50:29;;;;;;;8.90;2.85;;;;;;;;;;5019845;28;20030;-63
2023/10/04 09:52:55;;;;;;;11.40;2.85;;;;;;;;;;5023877;28;20113;-64
2023/10/04 09:55:22;;;;;;;15.43;2.92;;;15.50;99.90;;;;;;5028504;28;20456;-63
2023/10/04 09:57:49;;;;;;;18.13;3.28;;;17.10;99.90;;;;;;5023476;28;20017;-63
2023/10/04 10:00:18;;;;;;;16.35;2.60;;;17.20;99.90;;;;;;5029069;28;20018;-63
2023/10/04 10:02:52;;;;;;;6.63;2.20;;;17.30;99.90;;;;;;5021304;28;20021;-63
2023/10/04 10:05:26;;;;;;;11.60;2.50;;;17.30;99.90;;;;;;5023653;28;20038;-64
2023/10/04 10:07:53;;;;;;;19.90;3.15;;;17.20;99.90;;;;;;5020390;28;20030;-62
2023/10/04 10:10:21;;;;;;;17.45;3.15;;;17.30;99.90;;;;;;5042823;28;20040;-63
2023/10/04 10:12:51;;;;;;;13.75;2.80;;;17.40;99.90;;;;;;5020806;28;20152;-63
2023/10/04 10:15:18;;;;;;;10.60;2.85;;;17.30;99.90;;;;;;5028509;28;20112;-63
2023/10/04 10:17:46;;;;;;;8.35;2.78;;;17.30;99.90;;;;;;5013868;28;20041;-63
2023/10/04 10:20:15;;;;;;;18.77;2.88;;;17.30;99.90;;;;;;5019864;28;20021;-62
2023/10/04 10:22:58;;;;;;;15.13;2.97;;;17.40;99.90;;;;;;5023980;28;20125;-63
2023/10/04 10:25:29;;;;;;;11.60;3.20;;;17.40;99.90;;;;;;5019527;28;20040;-64
2023/10/04 10:28:01;;;;;;;11.68;3.63;;;17.20;99.90;;;;;;5023164;28;20271;-63
2023/10/04 10:30:28;;;;;;;12.40;3.47;;;17.10;99.90;;;;;;5026958;28;20462;-62
2023/10/04 10:32:56;;;;;;;9.68;3.00;;;17.20;99.90;;;;;;5021546;28;20033;-61
2023/10/04 10:35:56;;;;;;;13.68;3.22;;;17.30;99.90;;;;;;5020529;28;20044;-63
2023/10/04 10:38:39;;;;;;;13.90;3.10;;;17.20;99.90;;;;;;5028387;28;20403;-63
2023/10/04 10:41:31;;;;;;;11.15;2.65;;;17.50;99.90;;;;;;5018367;28;20445;-63
2023/10/04 10:44:12;;;;;;;15.30;2.40;;;17.70;99.90;;;;;;5024792;28;20025;-63
2023/10/04 10:46:54;;;;;;;8.20;3.00;;;17.80;99.90;;;;;;5022600;28;20101;-61
2023/10/04 10:49:39;;;;;;;13.00;3.50;;;17.60;99.90;;;;;;5020249;28;20029;-63
2023/10/04 10:52:10;;;;;;;11.00;3.33;;;17.40;99.90;;;;;;5026821;28;20025;-63
2023/10/04 10:54:36;;;;;;;12.80;3.58;;;17.80;99.90;;;;;;5020402;28;20022;-63
2023/10/04 10:57:05;;;;;;;18.35;3.78;;;17.70;99.90;;;;;;5019617;28;20018;-61
2023/10/04 10:59:32;;;;;;;13.10;4.15;;;17.80;99.90;;;;;;5025859;28;20071;-62
2023/10/04 11:01:59;;;;;;;11.35;3.75;;;18.00;99.90;;;;;;5025268;28;20108;-63
2023/10/04 11:04:24;;;;;;;12.88;3.40;;;18.10;99.90;;;;;;5022462;28;20044;-64
2023/10/04 11:06:51;;;;;;;11.35;3.50;;;18.30;99.90;;;;;;5024587;28;20491;-64
2023/10/04 11:09:20;;;;;;;17.27;4.63;;;18.00;99.90;;;;;;5021964;28;20056;-63
2023/10/04 11:11:47;;;;;;;12.40;3.85;;;17.90;99.90;;;;;;5020790;28;20036;-62
2023/10/04 11:14:16;;;;;;;16.30;3.83;;;18.00;99.90;;;;;;5023802;28;20109;-63
2023/10/04 11:16:44;;;;;;;16.85;3.63;;;18.00;99.90;;;;;;5029139;28;20017;-63
2023/10/04 11:19:10;;;;;;;11.73;3.20;;;18.10;99.90;;;;;;5018651;28;20484;-63
2023/10/04 11:21:36;;;;;;;23.50;4.72;;;18.10;99.90;;;;;;5026111;28;20031;-63
2023/10/04 11:24:03;;;;;;;14.38;3.67;;;18.20;99.90;;;;;;5020335;28;20022;-64
2023/10/04 11:26:30;;;;;;;17.27;3.97;;;18.20;99.90;;;;;;5022903;28;20480;-62
2023/10/04 11:28:56;;;;;;;17.38;3.95;;;18.40;99.90;;;;;;5024746;28;20030;-64
2023/10/04 11:31:23;;;;;;;13.63;4.18;;;18.20;99.90;;;;;;5025685;28;20044;-63
2023/10/04 11:33:50;;;;;;;20.27;4.47;;;18.40;99.90;;;;;;5023238;28;20026;-64
2023/10/04 11:36:22;;;;;;;15.32;4.05;;;18.40;99.90;;;;;;5022901;28;20511;-63
2023/10/04 11:38:54;;;;;;;11.07;3.10;;;18.30;99.90;;;;;;5017790;28;20406;-63
2023/10/04 11:41:21;;;;;;;17.95;3.70;;;18.40;99.90;;;;;;5019635;28;20032;-63
2023/10/04 11:43:50;;;;;;;13.25;3.88;;;18.30;99.90;;;;;;5021681;28;20029;-64
2023/10/04 11:46:16;;;;;;;17.90;4.18;;;18.40;99.90;;;;;;5023725;28;20018;-64
2023/10/04 11:48:41;;;;;;;13.02;3.90;;;18.30;99.90;;;;;;5021210;28;20031;-64
2023/10/04 11:51:07;;;;;;;9.52;3.60;;;18.10;99.90;;;;;;5018549;28;20028;-63
2023/10/04 11:53:44;;;;;;;14.88;3.63;;;18.00;99.90;;;;;;5021659;28;20099;-63
2023/10/04 11:56:10;;;;;;;19.00;3.95;;;18.10;99.90;;;;;;5022651;28;20026;-63
2023/10/04 11:58:49;;;;;;;21.27;3.88;;;18.20;99.90;;;;;;5018877;28;20025;-63
2023/10/04 12:01:16;;;;;;;15.05;4.32;;;18.10;99.90;;;;;;5020053;28;20024;-60
2023/10/04 12:03:41;;;;;;;16.10;4.53;;;18.00;99.90;;;;;;5016122;28;20088;-63
2023/10/04 12:06:07;;;;;;;14.90;4.00;;;18.10;99.90;;;;;;5014342;28;20037;-63
2023/10/04 12:08:35;;;;;;;9.75;3.67;;;18.20;99.90;;;;;;5013243;28;20029;-64
2023/10/04 12:11:01;;;;;;;14.00;3.92;;;18.10;99.90;;;;;;5019756;28;20034;-64
2023/10/04 12:13:27;;;;;;;19.42;4.22;;;18.30;99.90;;;;;;5012867;28;20022;-63
2023/10/04 12:15:53;;;;;;;17.83;5.15;;;18.40;99.90;;;;;;5015636;28;20454;-63
2023/10/04 12:18:18;;;;;;;14.73;4.32;;;18.60;99.90;;;;;;5025919;28;20041;-63
2023/10/04 12:20:44;;;;;;;19.35;5.53;;;18.70;99.90;;;;;;5016443;28;20067;-63
2023/10/04 12:23:13;;;;;;;15.27;5.00;;;18.70;99.90;;;;;;5022592;28;20083;-64
2023/10/04 12:25:42;;;;;;;18.90;5.30;;;18.80;99.90;;;;;;5019076;28;20033;-63
2023/10/04 12:28:08;;;;;;;20.13;5.20;;;18.70;99.90;;;;;;5022174;28;20079;-62
2023/10/04 12:30:34;;;;;;;14.30;5.28;;;18.60;99.90;;;;;;5019233;28;20030;-63
2023/10/04 12:33:00;;;;;;;15.95;4.70;;;18.50;99.90;;;;;;5016504;28;20030;-63
2023/10/04 12:35:27;;;;;;;18.40;5.32;;;18.60;99.90;;;;;;5017165;28;20028;-63
2023/10/04 12:37:52;;;;;;;17.98;4.85;;;18.70;99.90;;;;;;5020923;28;20048;-62
2023/10/04 12:40:23;;;;;;;17.27;5.20;;;18.80;99.90;;;;;;5015014;28;20480;-61
2023/10/04 12:42:52;;;;;;;16.83;5.47;;;18.50;99.90;;;;;;5016928;28;20461;-63
2023/10/04 12:45:21;;;;;;;21.55;5.30;;;18.50;99.90;;;;;;5017138;28;20124;-59
2023/10/04 12:47:47;;;;;;;18.75;5.28;;;18.60;99.90;;;;;;5021027;28;20036;-62
2023/10/04 12:50:16;;;;;;;20.63;5.82;;;18.40;99.90;;;;;;5019180;28;20651;-62
2023/10/04 12:52:43;;;;;;;18.65;5.40;;;18.60;99.90;;;;;;5020673;28;20033;-63
2023/10/04 12:55:11;;;;;;;21.88;5.32;;;18.70;99.90;;;;;;5020342;28;20123;-62
2023/10/04 12:57:40;;;;;;;15.25;4.82;;;18.30;99.90;;;;;;5018516;28;20034;-62
2023/10/04 13:00:14;;;;;;;16.85;5.20;;;18.50;99.90;;;;;;5018805;28;20486;-62